sim
Sign-in with your pilot id or email,
or register
Callsign
Passwort

Schedule Details

Flight Number: DLH2305 (2)
Departure: Amsterdam Schiphol Airport (EHAM) at 13:40
Arrival: Munich Airport (EDDM) at 15:00
Route: Lufthansa Passenger Schedule. Enter filed route here before submitting Pirep.

Weather Information
Getting current METAR information for EHAM 202055Z 05008KT CAVOK 15/12 Q1018 NOSIG
Getting current METAR information for EDDM 202050Z 00000KT CAVOK 11/10 Q1016 NOSIG

Schedule Frequency

Route Map